createdAt,value
2023-05-12T00:01:34.736Z,101655.41
2023-05-12T00:06:38.555Z,101663.00
2023-05-12T00:11:41.270Z,101659.00
2023-05-12T00:16:43.836Z,101655.94
2023-05-12T00:21:48.183Z,101663.25
2023-05-12T00:26:50.680Z,101661.94
2023-05-12T00:31:53.252Z,101658.00
2023-05-12T00:36:57.170Z,101660.78
2023-05-12T00:42:00.404Z,101659.25
2023-05-12T00:47:04.690Z,101662.91
2023-05-12T00:52:08.748Z,101659.69
2023-05-12T00:57:11.776Z,101659.34
2023-05-12T01:02:14.496Z,101662.44
2023-05-12T01:07:20.304Z,101669.91
2023-05-12T01:12:22.862Z,101676.59
2023-05-12T01:17:32.507Z,101677.97
2023-05-12T01:22:38.383Z,101691.28
2023-05-12T01:27:43.507Z,101686.56
2023-05-12T01:32:46.191Z,101688.00
2023-05-12T01:37:48.724Z,101683.16
2023-05-12T01:42:52.589Z,101682.16
2023-05-12T01:47:55.120Z,101687.88
2023-05-12T01:52:57.628Z,101682.81
2023-05-12T01:58:01.481Z,101691.47
2023-05-12T02:03:04.239Z,101691.69
2023-05-12T02:08:07.248Z,101701.53
2023-05-12T02:13:11.088Z,101699.22
2023-05-12T02:18:13.607Z,101698.66
2023-05-12T02:23:16.094Z,101697.81
2023-05-12T02:28:19.901Z,101708.44
2023-05-12T02:33:22.926Z,101696.81
2023-05-12T02:38:25.676Z,101708.66
2023-05-12T02:43:29.528Z,101714.66
2023-05-12T02:48:32.065Z,101716.84
2023-05-12T02:53:34.668Z,101718.94
2023-05-12T02:58:38.514Z,101715.22
2023-05-12T03:03:41.350Z,101717.16
2023-05-12T03:08:43.944Z,101717.94
2023-05-12T03:13:47.904Z,101715.81
2023-05-12T03:18:50.483Z,101719.75
2023-05-12T03:23:53.029Z,101724.59
2023-05-12T03:28:56.840Z,101715.38
2023-05-12T03:33:59.314Z,101721.34
2023-05-12T03:39:03.014Z,101728.91
2023-05-12T03:44:08.441Z,101731.22
2023-05-12T03:49:11.369Z,101732.94
2023-05-12T03:54:13.868Z,101735.03
2023-05-12T03:59:17.717Z,101728.97
2023-05-12T04:04:20.221Z,101733.75
2023-05-12T04:09:22.707Z,101727.91
2023-05-12T04:14:35.228Z,101742.16
2023-05-12T04:19:41.940Z,101750.50
2023-05-12T04:24:44.440Z,101755.47
2023-05-12T04:29:48.278Z,101763.38
2023-05-12T04:34:51.600Z,101763.78
2023-05-12T04:39:54.369Z,101765.13
2023-05-12T04:44:58.186Z,101772.88
2023-05-12T04:50:01.117Z,101778.53
2023-05-12T04:55:03.929Z,101779.38
2023-05-12T05:00:09.286Z,101779.34
2023-05-12T05:05:11.884Z,101788.97
2023-05-12T05:10:14.458Z,101784.81
2023-05-12T05:15:18.742Z,101791.19
2023-05-12T05:20:27.652Z,101801.00
2023-05-12T05:25:31.357Z,101802.44
2023-05-12T05:30:35.300Z,101798.81
2023-05-12T05:35:37.809Z,101800.41
2023-05-12T05:40:52.174Z,101802.16
2023-05-12T05:45:58.116Z,101815.66
2023-05-12T05:51:00.620Z,101818.53
2023-05-12T05:56:03.114Z,101825.25
2023-05-12T06:01:07.262Z,101820.34
2023-05-12T06:06:09.784Z,101823.56
2023-05-12T06:11:12.282Z,101832.75
2023-05-12T06:16:17.328Z,101828.56
2023-05-12T06:21:19.840Z,101834.06
2023-05-12T06:26:22.372Z,101837.91
2023-05-12T06:31:26.341Z,101836.38
2023-05-12T06:36:28.885Z,101842.47
2023-05-12T06:41:33.497Z,101845.91
2023-05-12T06:46:37.368Z,101844.22
2023-05-12T06:51:39.885Z,101845.41
2023-05-12T06:56:42.516Z,101839.41
2023-05-12T07:01:46.400Z,101838.25
2023-05-12T07:06:48.927Z,101837.34
2023-05-12T07:11:51.471Z,101839.63
2023-05-12T07:16:55.294Z,101844.31
2023-05-12T07:21:58.632Z,101843.84
2023-05-12T07:27:01.154Z,101843.47
2023-05-12T07:32:06.106Z,101845.19
2023-05-12T07:37:08.668Z,101841.28
2023-05-12T07:42:11.329Z,101844.94
2023-05-12T07:47:15.381Z,101846.50
2023-05-12T07:52:18.004Z,101841.28
2023-05-12T07:57:20.515Z,101837.78
2023-05-12T08:02:24.442Z,101836.88
2023-05-12T08:07:27.025Z,101842.78
2023-05-12T08:12:29.664Z,101840.47
2023-05-12T08:17:33.510Z,101840.06
2023-05-12T08:22:36.025Z,101847.16
2023-05-12T08:27:38.544Z,101851.16
2023-05-12T08:32:42.529Z,101848.94
2023-05-12T08:37:45.070Z,101852.50
2023-05-12T08:42:55.838Z,101858.34
2023-05-12T08:48:01.547Z,101846.78
2023-05-12T08:53:05.419Z,101846.84
2023-05-12T08:58:09.716Z,101840.19
2023-05-12T09:03:14.602Z,101846.28
2023-05-12T09:08:17.318Z,101840.50
2023-05-12T09:13:24.463Z,101840.81
2023-05-12T09:18:42.333Z,101842.06
2023-05-12T09:23:53.824Z,101838.44
2023-05-12T09:29:06.380Z,101836.47
2023-05-12T09:34:11.136Z,101839.00
2023-05-12T09:39:13.754Z,101835.63
2023-05-12T09:44:17.746Z,101827.75
2023-05-12T09:49:22.064Z,101824.47
2023-05-12T09:54:28.259Z,101823.00
2023-05-12T09:59:32.776Z,101833.56
2023-05-12T10:04:45.478Z,101816.91
2023-05-12T10:09:48.942Z,101825.09
2023-05-12T10:14:52.630Z,101814.69
2023-05-12T10:19:57.488Z,101819.75
2023-05-12T10:25:01.545Z,101818.09
2023-05-12T10:30:06.633Z,101822.69
2023-05-12T10:35:12.538Z,101818.19
2023-05-12T10:40:24.461Z,101813.91
2023-05-12T10:45:27.277Z,101810.47
2023-05-12T10:50:32.172Z,101806.88
2023-05-12T10:55:37.220Z,101806.81
2023-05-12T11:00:48.800Z,101805.78
2023-05-12T11:06:01.510Z,101811.47
2023-05-12T11:11:04.199Z,101809.91
2023-05-12T11:16:07.206Z,101807.75
2023-05-12T11:21:14.426Z,101797.19
2023-05-12T11:26:20.119Z,101801.03
2023-05-12T11:31:23.575Z,101797.78
2023-05-12T11:36:27.480Z,101801.34
2023-05-12T11:41:30.041Z,101801.53
2023-05-12T11:46:32.588Z,101802.59
2023-05-12T11:51:36.526Z,101811.19
2023-05-12T11:56:39.131Z,101796.66
2023-05-12T12:01:46.237Z,101803.56
2023-05-12T12:06:50.136Z,101806.78
2023-05-12T12:11:54.945Z,101802.91
2023-05-12T12:16:57.455Z,101795.09
2023-05-12T12:22:01.308Z,101801.78
2023-05-12T12:27:04.546Z,101808.91
2023-05-12T12:32:08.297Z,101812.94
2023-05-12T12:37:12.456Z,101813.56
2023-05-12T12:42:15.460Z,101803.47
2023-05-12T12:47:18.225Z,101811.16
2023-05-12T12:52:22.480Z,101807.16
2023-05-12T12:57:25.952Z,101800.50
2023-05-12T13:02:28.901Z,101797.59
2023-05-12T13:07:32.880Z,101803.06
2023-05-12T13:12:35.643Z,101798.59
2023-05-12T13:17:38.322Z,101813.72
2023-05-12T13:22:42.653Z,101809.06
2023-05-12T13:27:45.205Z,101792.56
2023-05-12T13:32:48.192Z,101800.91
2023-05-12T13:37:52.102Z,101797.44
2023-05-12T13:42:54.737Z,101800.63
2023-05-12T13:47:57.449Z,101797.78
2023-05-12T13:53:01.357Z,101792.91
2023-05-12T13:58:03.842Z,101796.25
2023-05-12T14:03:06.417Z,101783.84
2023-05-12T14:08:10.265Z,101788.50
2023-05-12T14:13:13.660Z,101790.00
2023-05-12T14:18:16.343Z,101788.84
2023-05-12T14:23:20.174Z,101797.00
2023-05-12T14:28:23.487Z,101790.03
2023-05-12T14:33:26.302Z,101788.56
2023-05-12T14:38:30.137Z,101779.13
2023-05-12T14:43:32.652Z,101774.63
2023-05-12T14:48:35.696Z,101783.31
2023-05-12T14:53:39.704Z,101779.75
2023-05-12T14:58:42.208Z,101778.78
2023-05-12T15:03:46.553Z,101791.25
2023-05-12T15:08:50.524Z,101797.22
2023-05-12T15:13:53.037Z,101792.38
2023-05-12T15:18:55.579Z,101795.81
2023-05-12T15:23:59.432Z,101796.16
2023-05-12T15:29:01.976Z,101797.44
2023-05-12T15:34:04.537Z,101793.81
2023-05-12T15:39:08.955Z,101798.06
2023-05-12T15:44:11.444Z,101804.03
2023-05-12T15:49:14.258Z,101793.06
2023-05-12T15:54:18.491Z,101808.91
2023-05-12T15:59:21.036Z,101810.25
2023-05-12T16:04:24.374Z,101808.09
2023-05-12T16:09:28.207Z,101809.69
2023-05-12T16:14:30.920Z,101803.94
2023-05-12T16:19:33.456Z,101813.66
2023-05-12T16:24:37.369Z,101807.16
2023-05-12T16:29:39.899Z,101811.84
2023-05-12T16:34:42.952Z,101807.94
2023-05-12T16:39:46.850Z,101813.03
2023-05-12T16:44:49.387Z,101813.25
2023-05-12T16:49:53.219Z,101813.88
2023-05-12T16:54:57.817Z,101823.41
2023-05-12T17:00:02.160Z,101830.03
2023-05-12T17:05:05.335Z,101824.66
2023-05-12T17:10:09.972Z,101834.88
2023-05-12T17:15:12.789Z,101837.13
2023-05-12T17:20:15.316Z,101841.03
2023-05-12T17:25:19.898Z,101846.75
2023-05-12T17:30:22.782Z,101849.09
2023-05-12T17:35:25.600Z,101846.81
2023-05-12T17:40:29.444Z,101859.63
2023-05-12T17:45:32.492Z,101852.59
2023-05-12T17:50:35.035Z,101855.41
2023-05-12T17:55:39.009Z,101860.94
2023-05-12T18:00:41.649Z,101861.03
2023-05-12T18:05:44.256Z,101867.47
2023-05-12T18:10:48.293Z,101869.56
2023-05-12T18:15:51.005Z,101876.00
2023-05-12T18:20:53.495Z,101872.38
2023-05-12T18:25:57.394Z,101875.91
2023-05-12T18:31:02.988Z,101891.94
2023-05-12T18:36:15.307Z,101888.25
2023-05-12T18:41:19.123Z,101893.56
2023-05-12T18:46:21.702Z,101906.81
2023-05-12T18:51:24.249Z,101914.97
2023-05-12T18:56:28.125Z,101915.91
2023-05-12T19:01:30.770Z,101912.56
2023-05-12T19:06:33.349Z,101928.38
2023-05-12T19:11:37.384Z,101927.94
2023-05-12T19:16:42.272Z,101932.94
2023-05-12T19:21:45.489Z,101942.44
2023-05-12T19:26:49.428Z,101936.34
2023-05-12T19:31:52.896Z,101941.56
2023-05-12T19:36:56.051Z,101949.38
2023-05-12T19:41:59.953Z,101945.41
2023-05-12T19:47:04.797Z,101946.81
2023-05-12T19:52:08.107Z,101945.50
2023-05-12T19:57:12.204Z,101950.25
2023-05-12T20:02:16.963Z,101954.34
2023-05-12T20:07:19.609Z,101960.31
2023-05-12T20:12:23.585Z,101963.06
2023-05-12T20:17:26.300Z,101958.50
2023-05-12T20:22:29.098Z,101959.19
2023-05-12T20:27:33.153Z,101963.44
2023-05-12T20:32:35.775Z,101963.88
2023-05-12T20:37:40.534Z,101964.63
2023-05-12T20:42:46.410Z,101963.69
2023-05-12T20:47:49.307Z,101972.00
2023-05-12T20:52:52.015Z,101975.16
2023-05-12T20:57:55.937Z,101973.88
2023-05-12T21:02:59.566Z,101972.13
2023-05-12T21:08:02.158Z,101972.78
2023-05-12T21:13:06.116Z,101974.50
2023-05-12T21:18:08.982Z,101976.97
2023-05-12T21:23:13.122Z,101977.50
2023-05-12T21:28:17.582Z,101990.22
2023-05-12T21:33:20.220Z,101989.63
2023-05-12T21:38:22.758Z,101989.69
2023-05-12T21:43:26.727Z,101984.94
2023-05-12T21:48:29.287Z,101988.28
2023-05-12T21:53:31.812Z,101995.44
2023-05-12T21:58:36.923Z,101999.13
2023-05-12T22:03:39.724Z,101993.13
2023-05-12T22:08:42.312Z,101999.41
2023-05-12T22:13:46.134Z,101999.50
2023-05-12T22:18:48.705Z,101997.47
2023-05-12T22:23:51.227Z,101998.47
2023-05-12T22:28:55.074Z,102004.44
2023-05-12T22:33:57.574Z,102014.88
2023-05-12T22:39:00.058Z,102014.16
2023-05-12T22:44:03.935Z,102009.09
2023-05-12T22:49:06.428Z,102008.59
2023-05-12T22:54:09.068Z,102012.50
2023-05-12T22:59:12.936Z,102008.59
2023-05-12T23:04:15.696Z,102017.41
2023-05-12T23:09:18.221Z,102009.78
2023-05-12T23:14:22.044Z,102012.25
2023-05-12T23:19:24.574Z,102007.47
2023-05-12T23:24:27.078Z,101999.91
2023-05-12T23:29:30.977Z,102008.28
2023-05-12T23:34:33.467Z,102007.22
2023-05-12T23:39:36.014Z,102007.69
2023-05-12T23:44:39.881Z,102010.78
2023-05-12T23:49:42.484Z,102010.56
2023-05-12T23:54:44.964Z,102003.03
2023-05-12T23:59:48.829Z,102011.38
